Time;durP1;ratioP1;P1;durP2;ratioP2;P2;SDS_P1;SDS_P2;PMS_P1;PMS_P2;Temp;Humidity;BMP_temperature;BMP_pressure;BME280_temperature;BME280_humidity;BME280_pressure;Samples;Min_cycle;Max_cycle;Signal;HPM_P1;HPM_P2
2022/06/21 00:04:25;;;;;;;;;;;;;;;25.07;41.89;95568.78;10454666;28;1837;-57
2022/06/21 00:09:25;;;;;;;;;;;;;;;25.11;41.89;95574.25;10487689;28;1898;-54
2022/06/21 00:14:25;;;;;;;;;;;;;;;25.14;41.86;95571.78;10490588;28;1664;-56
2022/06/21 00:19:26;;;;;;;;;;;;;;;25.15;41.66;95570.69;10486464;28;1879;-57
2022/06/21 00:24:26;;;;;;;;;;;;;;;25.12;41.74;95570.53;10456711;28;1888;-57
2022/06/21 00:29:27;;;;;;;;;;;;;;;25.08;41.38;95580.94;10476106;28;2140;-56
2022/06/21 00:34:27;;;;;;;;;;;;;;;25.03;41.51;95578.44;10470107;28;1924;-56
2022/06/21 00:39:27;;;;;;;;;;;;;;;25.02;41.35;95577.66;10457835;28;1867;-57
2022/06/21 00:44:41;;;;;;;;;;;;;;;25.00;41.38;95585.13;10485440;28;1995;-59
2022/06/21 00:50:20;;;;;;;;;;;;;;;25.00;41.17;95597.59;10470527;28;2016;-59
2022/06/21 00:55:40;;;;;;;;;;;;;;;24.96;41.05;95601.94;10439046;28;1931;-58
2022/06/21 01:00:41;;;;;;;;;;;;;;;24.97;41.26;95600.88;10479207;28;1888;-56
2022/06/21 01:05:42;;;;;;;;;;;;;;;24.96;41.00;95601.94;10490266;28;1909;-57
2022/06/21 01:10:44;;;;;;;;;;;;;;;24.94;40.83;95601.47;10483420;28;1917;-58
2022/06/21 01:15:46;;;;;;;;;;;;;;;24.89;40.57;95601.63;10502973;28;1836;-58
2022/06/21 01:20:55;;;;;;;;;;;;;;;24.87;40.44;95606.44;10484327;28;2312;-57
2022/06/21 01:26:05;;;;;;;;;;;;;;;24.82;40.22;95601.25;10469191;28;1978;-53
2022/06/21 01:31:09;;;;;;;;;;;;;;;24.79;40.24;95604.53;10474767;28;1870;-58
2022/06/21 01:36:12;;;;;;;;;;;;;;;24.74;39.76;95597.47;10468864;28;1843;-58
2022/06/21 01:41:16;;;;;;;;;;;;;;;24.71;39.53;95597.28;10484223;28;2025;-57
2022/06/21 01:46:17;;;;;;;;;;;;;;;24.68;38.89;95592.56;10485664;28;2011;-58
2022/06/21 01:51:23;;;;;;;;;;;;;;;24.59;38.29;95589.06;10456303;28;1868;-57
2022/06/21 01:56:25;;;;;;;;;;;;;;;24.54;37.97;95586.56;10499758;28;2023;-55
2022/06/21 02:01:27;;;;;;;;;;;;;;;24.40;37.44;95586.59;10482348;28;1864;-58
2022/06/21 02:06:29;;;;;;;;;;;;;;;24.34;37.18;95581.75;10494316;28;2012;-57
2022/06/21 02:11:35;;;;;;;;;;;;;;;24.38;37.16;95577.41;10490386;28;1986;-57
2022/06/21 02:16:35;;;;;;;;;;;;;;;24.39;37.29;95574.47;10467095;28;1931;-57
2022/06/21 02:21:37;;;;;;;;;;;;;;;24.35;37.10;95562.13;10477865;28;1971;-57
2022/06/21 02:26:37;;;;;;;;;;;;;;;24.20;36.44;95556.09;10427505;28;1983;-56
2022/06/21 02:31:38;;;;;;;;;;;;;;;24.20;36.75;95563.25;10465334;28;2023;-56
2022/06/21 02:36:46;;;;;;;;;;;;;;;24.21;36.82;95557.66;10477922;28;1889;-56
2022/06/21 02:41:51;;;;;;;;;;;;;;;24.15;36.67;95558.84;10464747;28;1993;-53
2022/06/21 02:46:53;;;;;;;;;;;;;;;24.12;36.80;95554.19;10459732;28;2008;-55
2022/06/21 02:51:54;;;;;;;;;;;;;;;24.00;36.36;95559.19;10479134;28;2077;-58
2022/06/21 02:56:59;;;;;;;;;;;;;;;23.96;36.58;95549.50;10478718;28;2069;-58
2022/06/21 03:02:04;;;;;;;;;;;;;;;23.95;36.01;95550.56;10480113;28;1845;-55
2022/06/21 03:07:04;;;;;;;;;;;;;;;23.80;35.88;95553.56;10462856;28;1972;-56
2022/06/21 03:12:04;;;;;;;;;;;;;;;23.58;35.77;95554.28;10461634;28;1946;-55
2022/06/21 03:17:05;;;;;;;;;;;;;;;23.45;35.91;95571.00;10460007;28;1979;-59
2022/06/21 03:22:18;;;;;;;;;;;;;;;23.46;35.95;95575.19;10472938;28;1990;-56
2022/06/21 03:27:31;;;;;;;;;;;;;;;23.35;35.92;95577.25;10458785;28;1921;-57
2022/06/21 03:32:33;;;;;;;;;;;;;;;23.29;36.29;95574.97;10475196;28;1967;-58
2022/06/21 03:37:37;;;;;;;;;;;;;;;23.31;36.46;95580.75;10476200;28;1876;-57
2022/06/21 03:42:39;;;;;;;;;;;;;;;23.36;36.61;95583.31;10456696;28;1990;-57
2022/06/21 03:47:41;;;;;;;;;;;;;;;23.25;36.33;95577.41;10459669;28;2176;-57
2022/06/21 03:53:00;;;;;;;;;;;;;;;23.13;36.43;95578.97;10469727;28;2029;-57
2022/06/21 03:58:12;;;;;;;;;;;;;;;23.07;36.82;95573.03;10475996;28;1959;-56
2022/06/21 04:03:13;;;;;;;;;;;;;;;23.06;37.05;95576.72;10472591;28;1973;-55
2022/06/21 04:08:15;;;;;;;;;;;;;;;23.09;36.68;95575.34;10477741;28;1934;-56
2022/06/21 04:13:19;;;;;;;;;;;;;;;23.05;36.96;95575.16;10487242;28;1963;-57
2022/06/21 04:18:25;;;;;;;;;;;;;;;23.08;36.79;95587.78;10458763;28;1915;-57
2022/06/21 04:23:42;;;;;;;;;;;;;;;22.97;36.58;95583.78;10486100;28;1873;-56
2022/06/21 04:28:44;;;;;;;;;;;;;;;22.96;37.00;95573.47;10457142;28;1971;-56
2022/06/21 04:33:47;;;;;;;;;;;;;;;23.04;36.89;95564.91;10459267;28;1923;-53
2022/06/21 04:39:14;;;;;;;;;;;;;;;23.11;37.04;95555.50;10457144;28;1983;-54
2022/06/21 04:44:38;;;;;;;;;;;;;;;23.08;36.43;95560.59;10442219;28;1979;-58
2022/06/21 04:49:58;;;;;;;;;;;;;;;23.08;36.69;95556.06;10426826;28;2067;-53
2022/06/21 04:54:58;;;;;;;;;;;;;;;23.12;37.21;95567.63;10455513;28;1923;-54
2022/06/21 05:00:00;;;;;;;;;;;;;;;22.90;35.95;95559.59;10428637;28;2137;-57
2022/06/21 05:05:09;;;;;;;;;;;;;;;22.43;35.55;95563.28;10470099;28;1931;-53
2022/06/21 05:10:13;;;;;;;;;;;;;;;22.11;35.76;95573.84;10467248;28;1939;-57
2022/06/21 05:15:18;;;;;;;;;;;;;;;22.14;36.52;95578.53;10459471;28;1981;-55
2022/06/21 05:20:20;;;;;;;;;;;;;;;22.12;36.45;95558.78;10473159;28;1950;-54
2022/06/21 05:25:26;;;;;;;;;;;;;;;21.97;36.67;95551.88;10437089;28;1996;-57
2022/06/21 05:30:39;;;;;;;;;;;;;;;21.92;36.83;95554.59;10471670;28;1939;-57
2022/06/21 05:35:40;;;;;;;;;;;;;;;21.92;36.69;95551.16;10456546;28;2227;-55
2022/06/21 05:40:45;;;;;;;;;;;;;;;22.21;36.65;95551.78;10447657;28;1937;-53
2022/06/21 05:45:50;;;;;;;;;;;;;;;22.45;36.35;95558.50;10461912;28;1930;-55
2022/06/21 05:50:51;;;;;;;;;;;;;;;22.67;36.25;95570.31;10462320;28;1894;-51
2022/06/21 05:55:52;;;;;;;;;;;;;;;22.79;36.41;95562.72;10453842;28;1843;-54
2022/06/21 06:01:00;;;;;;;;;;;;;;;22.52;35.86;95550.97;10474710;28;1848;-53
2022/06/21 06:06:05;;;;;;;;;;;;;;;22.47;36.33;95566.91;10493930;28;1922;-56
2022/06/21 06:11:08;;;;;;;;;;;;;;;22.41;36.17;95562.00;10470592;28;1970;-57
2022/06/21 06:16:24;;;;;;;;;;;;;;;22.29;35.97;95553.75;10474759;28;1928;-56
2022/06/21 06:21:43;;;;;;;;;;;;;;;22.28;36.10;95555.59;10466746;28;1904;-57
2022/06/21 06:26:44;;;;;;;;;;;;;;;22.26;36.11;95552.47;10474903;28;1973;-58
2022/06/21 06:31:46;;;;;;;;;;;;;;;22.28;35.84;95558.25;10467260;28;1878;-56
2022/06/21 06:36:50;;;;;;;;;;;;;;;22.35;36.11;95555.25;10479864;28;1853;-58
2022/06/21 06:41:59;;;;;;;;;;;;;;;22.35;35.78;95558.66;10490444;28;1969;-55
2022/06/21 06:47:01;;;;;;;;;;;;;;;22.40;35.96;95555.94;10479857;28;1996;-56
2022/06/21 06:52:05;;;;;;;;;;;;;;;22.41;35.95;95557.50;10475494;28;2230;-55
2022/06/21 06:57:09;;;;;;;;;;;;;;;22.31;36.10;95556.88;10478782;28;1843;-57
2022/06/21 07:02:29;;;;;;;;;;;;;;;22.30;36.01;95553.47;10452713;28;1866;-57
2022/06/21 07:07:32;;;;;;;;;;;;;;;22.26;35.92;95552.47;10490727;28;1914;-57
2022/06/21 07:12:33;;;;;;;;;;;;;;;22.28;35.32;95554.81;10491584;28;1740;-57
2022/06/21 07:17:36;;;;;;;;;;;;;;;22.25;35.20;95569.41;10457028;28;1827;-56
2022/06/21 07:22:37;;;;;;;;;;;;;;;22.56;35.81;95565.19;10487460;28;1808;-58
2022/06/21 07:27:38;;;;;;;;;;;;;;;22.72;35.59;95570.22;10468563;28;1981;-57
2022/06/21 07:32:44;;;;;;;;;;;;;;;22.82;35.55;95570.03;10443894;28;1865;-60
2022/06/21 07:37:55;;;;;;;;;;;;;;;22.94;35.32;95557.13;10456940;28;1926;-58
2022/06/21 07:43:06;;;;;;;;;;;;;;;23.05;35.47;95559.31;10466357;28;1851;-59
2022/06/21 07:48:08;;;;;;;;;;;;;;;23.10;35.45;95558.44;10478952;28;1977;-58
2022/06/21 07:53:11;;;;;;;;;;;;;;;23.11;35.43;95563.41;10488229;28;1744;-57
2022/06/21 07:58:12;;;;;;;;;;;;;;;23.09;35.43;95554.22;10483529;28;1867;-58
2022/06/21 08:08:35;;;;;;;;;;;;;;;23.13;35.19;95541.97;10487075;28;1957;-57
2022/06/21 08:13:37;;;;;;;;;;;;;;;23.16;35.48;95550.09;10458118;28;1818;-58
2022/06/21 08:18:40;;;;;;;;;;;;;;;23.20;35.76;95558.22;10454924;28;1888;-58
2022/06/21 08:23:46;;;;;;;;;;;;;;;23.30;35.97;95564.09;10464716;28;1825;-59
2022/06/21 08:28:53;;;;;;;;;;;;;;;23.42;35.48;95572.34;10432186;28;2002;-59
2022/06/21 08:33:56;;;;;;;;;;;;;;;23.50;35.65;95576.16;10455413;28;1878;-57
2022/06/21 08:39:16;;;;;;;;;;;;;;;23.56;35.90;95566.25;10450326;28;1892;-59
2022/06/21 08:44:34;;;;;;;;;;;;;;;23.61;35.54;95568.78;10426745;28;1924;-59
2022/06/21 08:49:50;;;;;;;;;;;;;;;23.64;35.59;95579.56;10489375;28;2018;-58
2022/06/21 08:55:01;;;;;;;;;;;;;;;23.66;35.77;95571.34;10474437;28;1858;-58
2022/06/21 09:00:03;;;;;;;;;;;;;;;23.71;35.65;95568.56;10487733;28;1841;-56
2022/06/21 09:05:22;;;;;;;;;;;;;;;23.73;35.85;95572.50;10467077;28;1846;-57
2022/06/21 09:10:29;;;;;;;;;;;;;;;23.79;35.65;95566.00;10466419;28;1965;-56
2022/06/21 09:15:35;;;;;;;;;;;;;;;23.83;35.97;95569.63;10441777;28;1832;-58
2022/06/21 09:20:35;;;;;;;;;;;;;;;23.89;35.94;95578.22;10496860;28;1856;-57
2022/06/21 09:25:44;;;;;;;;;;;;;;;23.95;36.18;95574.41;10461279;28;1902;-58
2022/06/21 09:30:47;;;;;;;;;;;;;;;24.01;36.43;95560.75;10461998;28;1853;-57
2022/06/21 09:35:57;;;;;;;;;;;;;;;24.06;36.50;95554.59;10465664;28;2233;-55
2022/06/21 09:41:10;;;;;;;;;;;;;;;24.10;36.36;95555.56;10461054;28;1976;-59
2022/06/21 09:46:23;;;;;;;;;;;;;;;24.13;36.59;95553.06;10481528;28;1969;-59
2022/06/21 09:51:25;;;;;;;;;;;;;;;24.17;36.73;95543.44;10478510;28;1840;-55
2022/06/21 09:56:37;;;;;;;;;;;;;;;24.20;37.02;95555.31;10461883;28;2020;-56
2022/06/21 10:01:49;;;;;;;;;;;;;;;24.23;37.04;95544.88;10494865;28;1962;-56
2022/06/21 10:06:58;;;;;;;;;;;;;;;24.27;37.44;95541.66;10460555;28;1913;-59
2022/06/21 10:12:08;;;;;;;;;;;;;;;24.29;37.60;95542.13;10490901;28;1940;-57
2022/06/21 10:17:25;;;;;;;;;;;;;;;24.32;37.45;95542.31;10460432;28;1902;-58
2022/06/21 10:22:31;;;;;;;;;;;;;;;24.36;37.83;95537.19;10479208;28;1804;-55
2022/06/21 10:27:43;;;;;;;;;;;;;;;24.39;37.47;95528.63;10449826;28;1979;-60
2022/06/21 10:32:51;;;;;;;;;;;;;;;24.44;37.54;95517.94;10479272;28;1796;-58
2022/06/21 10:37:51;;;;;;;;;;;;;;;24.45;37.61;95525.56;10458872;28;2120;-58
2022/06/21 10:42:55;;;;;;;;;;;;;;;24.47;37.64;95538.50;10480387;28;1787;-58
2022/06/21 10:48:00;;;;;;;;;;;;;;;24.47;37.66;95520.75;10458874;28;1965;-59
2022/06/21 10:53:20;;;;;;;;;;;;;;;24.49;37.72;95507.19;10487262;28;1853;-56
2022/06/21 10:58:23;;;;;;;;;;;;;;;24.49;38.03;95500.03;10477431;28;1856;-57
2022/06/21 11:03:35;;;;;;;;;;;;;;;24.52;38.02;95501.28;10459745;28;1911;-56
2022/06/21 11:08:42;;;;;;;;;;;;;;;24.56;38.05;95499.59;10476674;28;1909;-58
2022/06/21 11:13:47;;;;;;;;;;;;;;;24.58;37.94;95484.97;10472079;28;1863;-57
2022/06/21 11:18:53;;;;;;;;;;;;;;;24.60;38.23;95474.03;10445183;28;1849;-55
2022/06/21 11:24:00;;;;;;;;;;;;;;;24.62;38.25;95471.88;10459549;28;1845;-58
2022/06/21 11:29:03;;;;;;;;;;;;;;;24.65;38.31;95471.25;10485616;28;1973;-57
2022/06/21 11:34:10;;;;;;;;;;;;;;;24.69;38.65;95466.91;10472097;28;1873;-58
2022/06/21 11:39:16;;;;;;;;;;;;;;;24.69;38.69;95461.63;10433658;28;1893;-55
2022/06/21 11:44:17;;;;;;;;;;;;;;;24.72;38.72;95461.00;10467896;28;1851;-56
2022/06/21 11:49:36;;;;;;;;;;;;;;;24.74;38.62;95454.34;10463201;28;1921;-58
2022/06/21 11:54:43;;;;;;;;;;;;;;;24.76;38.46;95454.03;10459651;28;1781;-59
2022/06/21 11:59:50;;;;;;;;;;;;;;;24.78;38.88;95427.97;10475583;28;1760;-59
2022/06/21 12:04:57;;;;;;;;;;;;;;;24.80;38.63;95404.59;10455149;28;1849;-60
2022/06/21 12:10:04;;;;;;;;;;;;;;;24.81;38.85;95406.94;10451445;28;1886;-60
2022/06/21 12:15:20;;;;;;;;;;;;;;;24.84;38.72;95394.94;10456924;28;1795;-58
2022/06/21 12:20:43;;;;;;;;;;;;;;;24.86;38.87;95403.38;10470899;28;1893;-54
2022/06/21 12:25:44;;;;;;;;;;;;;;;24.89;39.03;95410.72;10442895;28;1982;-60
2022/06/21 12:30:45;;;;;;;;;;;;;;;24.89;39.28;95405.41;10455990;28;1812;-61
2022/06/21 12:35:48;;;;;;;;;;;;;;;24.90;38.98;95399.78;10453807;28;1857;-57
2022/06/21 12:40:58;;;;;;;;;;;;;;;24.92;39.29;95330.53;10454301;28;2120;-58
2022/06/21 12:45:58;;;;;;;;;;;;;;;24.91;39.40;95310.44;10457737;28;1910;-58
2022/06/21 12:51:04;;;;;;;;;;;;;;;24.92;39.61;95349.09;10456909;28;1786;-58
2022/06/21 12:56:28;;;;;;;;;;;;;;;24.96;39.38;95350.03;10431621;28;1845;-59
2022/06/21 13:01:30;;;;;;;;;;;;;;;24.98;39.69;95348.63;10460538;28;1836;-55
2022/06/21 13:06:49;;;;;;;;;;;;;;;24.99;39.45;95344.13;10454760;28;1971;-60
2022/06/21 13:11:50;;;;;;;;;;;;;;;25.01;39.75;95339.28;10448791;28;1892;-59
2022/06/21 13:17:04;;;;;;;;;;;;;;;25.01;39.58;95336.63;10468110;28;1866;-59
2022/06/21 13:22:16;;;;;;;;;;;;;;;25.03;39.89;95334.44;10470778;28;1867;-57
2022/06/21 13:27:23;;;;;;;;;;;;;;;25.05;39.67;95337.56;10453136;28;1967;-59
2022/06/21 13:32:24;;;;;;;;;;;;;;;25.05;39.68;95329.63;10485320;28;1824;-59
2022/06/21 13:37:45;;;;;;;;;;;;;;;25.05;39.88;95326.97;10453322;28;1933;-57
2022/06/21 13:42:50;;;;;;;;;;;;;;;25.06;40.01;95309.94;10441943;28;1931;-59
2022/06/21 13:47:53;;;;;;;;;;;;;;;25.07;40.22;95298.25;10492386;28;1972;-57
2022/06/21 13:53:13;;;;;;;;;;;;;;;25.08;40.18;95294.50;10455270;28;1983;-59
2022/06/21 13:58:23;;;;;;;;;;;;;;;25.09;40.11;95305.91;10465963;28;2333;-60
2022/06/21 14:03:29;;;;;;;;;;;;;;;25.11;40.42;95303.72;10480684;28;1789;-58
2022/06/21 14:08:31;;;;;;;;;;;;;;;25.14;40.10;95303.09;10476056;28;1996;-59
2022/06/21 14:13:41;;;;;;;;;;;;;;;25.15;40.39;95280.78;10453656;28;1735;-53
2022/06/21 14:18:42;;;;;;;;;;;;;;;25.15;40.29;95260.34;10493273;28;1910;-55
2022/06/21 14:23:46;;;;;;;;;;;;;;;25.13;40.59;95249.28;10491834;28;1789;-60
2022/06/21 14:29:17;;;;;;;;;;;;;;;25.14;40.43;95248.19;10459674;28;1914;-55
2022/06/21 14:34:32;;;;;;;;;;;;;;;25.17;40.44;95233.50;10464612;28;1718;-57
2022/06/21 14:39:39;;;;;;;;;;;;;;;25.15;40.59;95241.78;10475884;28;1864;-56
2022/06/21 14:44:47;;;;;;;;;;;;;;;25.18;40.48;95245.69;10490696;28;1819;-55
2022/06/21 14:49:50;;;;;;;;;;;;;;;25.17;40.63;95234.28;10446277;28;1985;-56
2022/06/21 14:55:14;;;;;;;;;;;;;;;25.18;40.68;95229.78;10458975;28;1852;-59
2022/06/21 15:00:24;;;;;;;;;;;;;;;25.18;40.63;95235.06;10445561;28;1843;-57
2022/06/21 15:05:37;;;;;;;;;;;;;;;25.17;40.85;95242.25;10493989;28;1877;-54
2022/06/21 15:11:01;;;;;;;;;;;;;;;25.20;40.48;95238.97;10476332;28;1902;-58
2022/06/21 15:16:09;;;;;;;;;;;;;;;25.19;40.59;95226.00;10471266;28;1909;-58
2022/06/21 15:21:10;;;;;;;;;;;;;;;25.21;40.64;95216.66;10419081;28;2071;-57
2022/06/21 15:26:22;;;;;;;;;;;;;;;25.21;40.54;95203.38;10476713;28;1975;-55
2022/06/21 15:31:23;;;;;;;;;;;;;;;25.22;40.73;95199.66;10493838;28;1958;-57
2022/06/21 15:36:31;;;;;;;;;;;;;;;25.24;41.14;95189.50;10475358;28;1853;-55
2022/06/21 15:41:38;;;;;;;;;;;;;;;25.28;41.31;95187.78;10476008;28;1850;-58
2022/06/21 15:46:38;;;;;;;;;;;;;;;25.29;41.42;95177.91;10459618;28;1914;-58
2022/06/21 15:51:43;;;;;;;;;;;;;;;25.29;41.51;95183.22;10444124;28;1818;-57
2022/06/21 15:56:46;;;;;;;;;;;;;;;25.30;41.29;95200.72;10491203;28;2012;-56
2022/06/21 16:02:02;;;;;;;;;;;;;;;25.30;41.38;95209.47;10456905;28;1782;-57
2022/06/21 16:07:18;;;;;;;;;;;;;;;25.29;41.45;95210.53;10476297;28;1901;-55
2022/06/21 16:12:21;;;;;;;;;;;;;;;25.30;41.46;95195.41;10489098;28;1827;-57
2022/06/21 16:17:25;;;;;;;;;;;;;;;25.28;41.34;95209.00;10475594;28;1837;-57
2022/06/21 16:22:39;;;;;;;;;;;;;;;25.31;41.34;95210.22;10476929;28;1822;-57
2022/06/21 16:27:43;;;;;;;;;;;;;;;25.28;41.17;95203.69;10491825;28;1969;-55
2022/06/21 16:33:13;;;;;;;;;;;;;;;25.26;40.91;95192.63;10488966;28;1856;-58
2022/06/21 16:38:32;;;;;;;;;;;;;;;25.26;40.98;95199.78;10445144;28;1815;-58
2022/06/21 16:43:38;;;;;;;;;;;;;;;25.25;40.79;95193.69;10477156;28;1796;-55
2022/06/21 16:48:44;;;;;;;;;;;;;;;25.24;40.88;95180.75;10444620;28;1988;-58
2022/06/21 16:53:48;;;;;;;;;;;;;;;25.22;40.83;95172.34;10475664;28;1881;-58
2022/06/21 16:58:52;;;;;;;;;;;;;;;25.24;40.86;95172.81;10470355;28;1869;-58
2022/06/21 17:03:56;;;;;;;;;;;;;;;25.20;40.78;95153.31;10493429;28;1899;-59
2022/06/21 17:09:10;;;;;;;;;;;;;;;25.19;40.54;95176.41;10444376;28;1906;-57
2022/06/21 17:14:11;;;;;;;;;;;;;;;25.19;40.36;95183.56;10475944;28;1843;-55
2022/06/21 17:19:17;;;;;;;;;;;;;;;25.17;40.60;95196.38;10458756;28;1800;-57
2022/06/21 17:24:27;;;;;;;;;;;;;;;25.15;40.52;95195.91;10483942;28;1854;-56
2022/06/21 17:29:31;;;;;;;;;;;;;;;25.13;40.23;95196.22;10472480;28;2018;-60
2022/06/21 17:34:44;;;;;;;;;;;;;;;25.12;40.39;95186.72;10460651;28;1868;-59
2022/06/21 17:39:45;;;;;;;;;;;;;;;25.14;40.26;95186.41;10446016;28;1833;-58
2022/06/21 17:44:53;;;;;;;;;;;;;;;25.15;40.15;95162.22;10462516;28;1919;-57
2022/06/21 17:49:55;;;;;;;;;;;;;;;25.19;40.21;95178.25;10444492;28;2106;-58
2022/06/21 17:54:57;;;;;;;;;;;;;;;25.16;40.07;95190.31;10461267;28;1777;-59
2022/06/21 17:59:57;;;;;;;;;;;;;;;25.17;40.13;95183.88;10494523;28;1820;-58
2022/06/21 18:05:01;;;;;;;;;;;;;;;25.16;40.08;95174.38;10501697;28;1706;-57
2022/06/21 18:10:11;;;;;;;;;;;;;;;25.16;40.00;95187.66;10476786;28;1972;-58
2022/06/21 18:15:11;;;;;;;;;;;;;;;25.17;39.89;95202.47;10478860;28;1710;-58
2022/06/21 18:20:20;;;;;;;;;;;;;;;25.17;40.16;95191.84;10473365;28;1901;-58
2022/06/21 18:25:21;;;;;;;;;;;;;;;25.16;40.03;95194.81;10478051;28;1874;-56
2022/06/21 18:30:38;;;;;;;;;;;;;;;25.16;39.69;95184.22;10493250;28;1971;-58
2022/06/21 18:35:45;;;;;;;;;;;;;;;25.15;39.87;95183.44;10468511;28;1718;-57
2022/06/21 18:40:54;;;;;;;;;;;;;;;25.15;39.82;95182.63;10443448;28;1894;-55
2022/06/21 18:45:56;;;;;;;;;;;;;;;25.16;40.11;95173.59;10458898;28;2189;-57
2022/06/21 18:51:02;;;;;;;;;;;;;;;25.17;40.14;95173.28;10454721;28;1898;-58
2022/06/21 18:56:11;;;;;;;;;;;;;;;25.18;40.03;95166.09;10451181;28;1958;-56
2022/06/21 19:01:19;;;;;;;;;;;;;;;25.17;39.89;95173.28;10477407;28;1980;-57
2022/06/21 19:12:15;;;;;;;;;;;;;;;25.17;39.95;95161.88;10407201;28;2160;-57
2022/06/21 19:17:27;;;;;;;;;;;;;;;25.16;40.04;95163.78;10500367;28;1870;-55
2022/06/21 19:22:33;;;;;;;;;;;;;;;25.16;39.74;95163.00;10489761;28;2034;-58
2022/06/21 19:27:52;;;;;;;;;;;;;;;25.17;39.67;95191.84;10489249;28;1906;-59
2022/06/21 19:33:11;;;;;;;;;;;;;;;25.19;39.64;95220.69;10478643;28;1872;-57
2022/06/21 19:38:30;;;;;;;;;;;;;;;25.21;40.15;95239.72;10493220;28;1760;-59
2022/06/21 19:43:39;;;;;;;;;;;;;;;25.20;40.07;95262.84;10481132;28;1872;-58
2022/06/21 19:49:03;;;;;;;;;;;;;;;25.23;40.14;95258.75;10458183;28;1950;-58
2022/06/21 19:54:04;;;;;;;;;;;;;;;25.29;40.70;95273.41;10458499;28;2020;-55
2022/06/21 19:59:24;;;;;;;;;;;;;;;25.28;40.59;95270.00;10472506;28;1824;-56
2022/06/21 20:04:44;;;;;;;;;;;;;;;25.32;40.50;95244.41;10462263;28;1841;-57
2022/06/21 20:09:48;;;;;;;;;;;;;;;25.36;40.54;95237.38;10493611;28;1914;-57
2022/06/21 20:14:50;;;;;;;;;;;;;;;25.35;40.27;95237.69;10445792;28;1829;-55
2022/06/21 20:20:00;;;;;;;;;;;;;;;25.36;40.42;95239.25;10489867;28;1897;-57
2022/06/21 20:25:15;;;;;;;;;;;;;;;25.37;40.55;95233.63;10479484;28;1788;-57
2022/06/21 20:30:17;;;;;;;;;;;;;;;25.37;40.48;95228.31;10464030;28;2004;-53
2022/06/21 20:35:25;;;;;;;;;;;;;;;25.39;40.66;95217.41;10439612;28;2214;-58
2022/06/21 20:40:30;;;;;;;;;;;;;;;25.37;40.21;95224.91;10468572;28;1784;-57
2022/06/21 20:45:35;;;;;;;;;;;;;;;25.36;40.32;95224.09;10474273;28;1835;-57
2022/06/21 20:50:36;;;;;;;;;;;;;;;25.33;40.15;95214.13;10433681;28;1985;-52
2022/06/21 20:55:55;;;;;;;;;;;;;;;25.32;40.24;95203.81;10439495;28;1811;-57
2022/06/21 21:00:58;;;;;;;;;;;;;;;25.31;40.13;95218.97;10485072;28;1853;-56
2022/06/21 21:05:59;;;;;;;;;;;;;;;25.30;39.87;95208.66;10474657;28;1785;-55
2022/06/21 21:11:00;;;;;;;;;;;;;;;25.28;39.84;95197.59;10442383;28;1962;-53
2022/06/21 21:16:06;;;;;;;;;;;;;;;25.26;39.79;95200.56;10480774;28;1938;-55
2022/06/21 21:21:07;;;;;;;;;;;;;;;25.26;39.57;95221.78;10477902;28;1827;-54
2022/06/21 21:26:34;;;;;;;;;;;;;;;25.26;39.69;95253.63;10479828;28;1898;-57
2022/06/21 21:31:37;;;;;;;;;;;;;;;25.26;39.39;95280.16;10460736;28;1681;-57
2022/06/21 21:36:37;;;;;;;;;;;;;;;25.23;39.26;95286.06;10494439;28;1780;-57
2022/06/21 21:41:42;;;;;;;;;;;;;;;25.23;39.53;95277.34;10480523;28;1851;-57
2022/06/21 21:46:50;;;;;;;;;;;;;;;25.23;39.40;95261.41;10457860;28;1910;-52
2022/06/21 21:51:55;;;;;;;;;;;;;;;25.17;39.15;95244.09;10475502;28;1934;-56
2022/06/21 21:56:57;;;;;;;;;;;;;;;25.11;39.42;95240.06;10478872;28;1904;-56
2022/06/21 22:01:57;;;;;;;;;;;;;;;25.07;39.27;95237.25;10469611;28;1863;-54
2022/06/21 22:07:06;;;;;;;;;;;;;;;25.07;39.60;95244.44;10462938;28;1913;-56
2022/06/21 22:12:10;;;;;;;;;;;;;;;25.09;39.81;95245.69;10494411;28;1850;-56
2022/06/21 22:17:18;;;;;;;;;;;;;;;25.15;39.71;95263.00;10481939;28;1866;-57
2022/06/21 22:22:27;;;;;;;;;;;;;;;25.21;40.22;95282.16;10493086;28;2423;-57
2022/06/21 22:27:35;;;;;;;;;;;;;;;25.23;40.44;95270.16;10477526;28;1973;-57
2022/06/21 22:32:36;;;;;;;;;;;;;;;25.25;40.66;95273.28;10480271;28;1868;-58
2022/06/21 22:37:36;;;;;;;;;;;;;;;25.26;40.58;95271.41;10459605;28;1812;-57
2022/06/21 22:42:36;;;;;;;;;;;;;;;25.26;40.81;95266.09;10462414;28;1819;-57
2022/06/21 22:47:37;;;;;;;;;;;;;;;25.27;41.17;95265.00;10441200;28;1906;-56
2022/06/21 22:52:38;;;;;;;;;;;;;;;25.26;41.15;95237.72;10432179;28;1867;-57
2022/06/21 22:57:40;;;;;;;;;;;;;;;25.26;41.77;95243.03;10461381;28;1771;-57
2022/06/21 23:02:42;;;;;;;;;;;;;;;25.28;42.34;95235.53;10492792;28;1833;-55
2022/06/21 23:08:15;;;;;;;;;;;;;;;25.28;42.59;95246.13;10462799;28;1985;-54
2022/06/21 23:13:16;;;;;;;;;;;;;;;25.30;43.09;95251.91;10449842;28;1939;-57
2022/06/21 23:18:20;;;;;;;;;;;;;;;25.31;42.69;95282.63;10457897;28;1847;-55
2022/06/21 23:23:20;;;;;;;;;;;;;;;25.33;43.01;95311.50;10476603;28;1896;-56
2022/06/21 23:28:21;;;;;;;;;;;;;;;25.33;43.33;95348.63;10462506;28;1979;-54
2022/06/21 23:33:22;;;;;;;;;;;;;;;25.33;43.21;95344.13;10469213;28;1971;-55
2022/06/21 23:38:24;;;;;;;;;;;;;;;25.34;43.11;95345.69;10460525;28;1884;-54
2022/06/21 23:43:36;;;;;;;;;;;;;;;25.36;43.13;95354.13;10475105;28;1836;-55
2022/06/21 23:48:36;;;;;;;;;;;;;;;25.37;42.82;95354.91;10471803;28;2230;-56
2022/06/21 23:53:36;;;;;;;;;;;;;;;25.35;42.92;95355.19;10441868;28;1772;-58
2022/06/21 23:58:38;;;;;;;;;;;;;;;25.34;42.93;95377.53;10443164;28;1857;-56
